sensor_id;sensor_type;location;lat;lon;timestamp;pressure;altitude;pressure_sealevel;temperature;humidity
12694;BME280;6411;58.190;12.720;2022-11-02T00:00:34;100112.81;;;16.88;100.00
12694;BME280;6411;58.190;12.720;2022-11-02T00:03:00;100106.06;;;16.76;100.00
12694;BME280;6411;58.190;12.720;2022-11-02T00:05:26;100120.03;;;16.52;100.00
12694;BME280;6411;58.190;12.720;2022-11-02T00:07:53;100117.91;;;16.82;100.00
12694;BME280;6411;58.190;12.720;2022-11-02T00:10:20;100111.16;;;17.29;100.00
12694;BME280;6411;58.190;12.720;2022-11-02T00:12:46;100106.06;;;17.02;100.00
12694;BME280;6411;58.190;12.720;2022-11-02T00:15:12;100102.75;;;17.08;100.00
12694;BME280;6411;58.190;12.720;2022-11-02T00:17:45;100113.09;;;16.85;100.00
12694;BME280;6411;58.190;12.720;2022-11-02T00:20:13;100097.09;;;16.77;100.00
12694;BME280;6411;58.190;12.720;2022-11-02T00:22:41;100110.19;;;16.96;100.00
12694;BME280;6411;58.190;12.720;2022-11-02T00:25:08;100112.81;;;16.88;100.00
12694;BME280;6411;58.190;12.720;2022-11-02T00:27:36;100108.94;;;17.16;100.00
12694;BME280;6411;58.190;12.720;2022-11-02T00:30:02;100109.75;;;17.09;100.00
12694;BME280;6411;58.190;12.720;2022-11-02T00:32:28;100111.81;;;16.89;100.00
12694;BME280;6411;58.190;12.720;2022-11-02T00:34:53;100104.03;;;16.70;100.00
12694;BME280;6411;58.190;12.720;2022-11-02T00:37:19;100122.81;;;16.68;100.00
12694;BME280;6411;58.190;12.720;2022-11-02T00:39:44;100102.75;;;17.08;100.00
12694;BME280;6411;58.190;12.720;2022-11-02T00:42:10;100096.97;;;16.87;100.00
12694;BME280;6411;58.190;12.720;2022-11-02T00:44:35;100098.69;;;16.96;100.00
12694;BME280;6411;58.190;12.720;2022-11-02T00:47:01;100108.25;;;16.81;100.00
12694;BME280;6411;58.190;12.720;2022-11-02T00:49:26;100108.25;;;17.06;100.00
12694;BME280;6411;58.190;12.720;2022-11-02T00:51:52;100096.09;;;17.04;100.00
12694;BME280;6411;58.190;12.720;2022-11-02T00:56:45;100100.66;;;17.19;100.00
12694;BME280;6411;58.190;12.720;2022-11-02T00:59:11;100101.78;;;17.09;100.00
12694;BME280;6411;58.190;12.720;2022-11-02T01:01:36;100102.38;;;16.95;100.00
12694;BME280;6411;58.190;12.720;2022-11-02T01:04:02;100094.66;;;17.17;100.00
12694;BME280;6411;58.190;12.720;2022-11-02T01:06:28;100099.97;;;16.84;100.00
12694;BME280;6411;58.190;12.720;2022-11-02T01:08:53;100099.84;;;17.27;100.00
12694;BME280;6411;58.190;12.720;2022-11-02T01:11:22;100100.19;;;16.64;100.00
12694;BME280;6411;58.190;12.720;2022-11-02T01:13:52;100098.38;;;16.99;100.00
12694;BME280;6411;58.190;12.720;2022-11-02T01:16:18;100104.19;;;16.68;100.00
12694;BME280;6411;58.190;12.720;2022-11-02T01:18:44;100095.59;;;16.74;100.00
12694;BME280;6411;58.190;12.720;2022-11-02T01:21:09;100093.00;;;16.83;100.00
12694;BME280;6411;58.190;12.720;2022-11-02T01:23:36;100098.00;;;16.86;100.00
12694;BME280;6411;58.190;12.720;2022-11-02T01:26:07;100091.41;;;16.98;100.00
12694;BME280;6411;58.190;12.720;2022-11-02T01:28:33;100087.94;;;16.71;100.00
12694;BME280;6411;58.190;12.720;2022-11-02T01:30:59;100091.91;;;16.93;100.00
12694;BME280;6411;58.190;12.720;2022-11-02T01:33:25;100090.25;;;16.74;100.00
12694;BME280;6411;58.190;12.720;2022-11-02T01:35:52;100080.38;;;16.85;100.00
12694;BME280;6411;58.190;12.720;2022-11-02T01:38:17;100088.13;;;16.78;100.00
12694;BME280;6411;58.190;12.720;2022-11-02T01:40:43;100075.84;;;16.77;100.00
12694;BME280;6411;58.190;12.720;2022-11-02T01:45:54;100079.59;;;16.66;100.00
12694;BME280;6411;58.190;12.720;2022-11-02T01:48:35;100074.16;;;16.76;100.00
12694;BME280;6411;58.190;12.720;2022-11-02T01:51:04;100049.16;;;16.61;100.00
12694;BME280;6411;58.190;12.720;2022-11-02T01:53:33;100071.38;;;16.78;100.00
12694;BME280;6411;58.190;12.720;2022-11-02T01:56:00;100070.69;;;16.76;100.00
12694;BME280;6411;58.190;12.720;2022-11-02T01:58:26;100061.56;;;16.52;100.00
12694;BME280;6411;58.190;12.720;2022-11-02T02:00:52;100074.03;;;16.78;100.00
12694;BME280;6411;58.190;12.720;2022-11-02T02:03:18;100073.69;;;16.81;100.00
12694;BME280;6411;58.190;12.720;2022-11-02T02:05:48;100074.06;;;16.86;100.00
12694;BME280;6411;58.190;12.720;2022-11-02T02:08:18;100068.31;;;16.98;100.00
12694;BME280;6411;58.190;12.720;2022-11-02T02:10:44;100074.09;;;16.94;100.00
12694;BME280;6411;58.190;12.720;2022-11-02T02:13:10;100054.25;;;16.80;100.00
12694;BME280;6411;58.190;12.720;2022-11-02T02:16:04;100063.00;;;17.06;100.00
12694;BME280;6411;58.190;12.720;2022-11-02T02:18:56;100061.63;;;17.36;100.00
12694;BME280;6411;58.190;12.720;2022-11-02T02:21:57;100068.72;;;16.78;100.00
12694;BME280;6411;58.190;12.720;2022-11-02T02:27:22;100057.09;;;16.87;100.00
12694;BME280;6411;58.190;12.720;2022-11-02T02:30:06;100038.66;;;16.85;100.00
12694;BME280;6411;58.190;12.720;2022-11-02T02:32:42;100050.25;;;16.50;100.00
12694;BME280;6411;58.190;12.720;2022-11-02T02:35:14;100055.03;;;16.72;100.00
12694;BME280;6411;58.190;12.720;2022-11-02T02:38:02;100052.44;;;16.81;100.00
12694;BME280;6411;58.190;12.720;2022-11-02T02:40:36;100053.34;;;16.46;100.00
12694;BME280;6411;58.190;12.720;2022-11-02T02:43:34;100043.31;;;16.40;100.00
12694;BME280;6411;58.190;12.720;2022-11-02T02:46:12;100051.84;;;16.26;100.00
12694;BME280;6411;58.190;12.720;2022-11-02T02:48:43;100056.13;;;16.19;100.00
12694;BME280;6411;58.190;12.720;2022-11-02T02:51:25;100059.63;;;16.19;100.00
12694;BME280;6411;58.190;12.720;2022-11-02T02:53:58;100054.84;;;16.05;100.00
12694;BME280;6411;58.190;12.720;2022-11-02T02:56:28;100049.00;;;16.02;100.00
12694;BME280;6411;58.190;12.720;2022-11-02T02:58:58;100052.19;;;16.05;100.00
12694;BME280;6411;58.190;12.720;2022-11-02T03:01:25;100049.31;;;16.16;100.00
12694;BME280;6411;58.190;12.720;2022-11-02T03:03:52;100047.16;;;16.37;100.00
12694;BME280;6411;58.190;12.720;2022-11-02T03:06:22;100040.38;;;16.25;100.00
12694;BME280;6411;58.190;12.720;2022-11-02T03:11:30;100052.63;;;16.01;100.00
12694;BME280;6411;58.190;12.720;2022-11-02T03:22:29;100055.69;;;16.06;100.00
12694;BME280;6411;58.190;12.720;2022-11-02T03:31:12;100051.81;;;16.00;100.00
12694;BME280;6411;58.190;12.720;2022-11-02T03:34:31;100062.13;;;15.68;100.00
12694;BME280;6411;58.190;12.720;2022-11-02T03:37:17;100062.56;;;15.46;100.00
12694;BME280;6411;58.190;12.720;2022-11-02T03:39:57;100055.41;;;16.34;100.00
12694;BME280;6411;58.190;12.720;2022-11-02T03:42:30;100052.69;;;16.26;100.00
12694;BME280;6411;58.190;12.720;2022-11-02T03:45:00;100049.41;;;16.32;100.00
12694;BME280;6411;58.190;12.720;2022-11-02T03:47:30;100046.00;;;16.40;100.00
12694;BME280;6411;58.190;12.720;2022-11-02T03:49:58;100057.88;;;15.93;100.00
12694;BME280;6411;58.190;12.720;2022-11-02T03:52:27;100063.72;;;15.96;100.00
12694;BME280;6411;58.190;12.720;2022-11-02T03:55:09;100058.72;;;15.93;100.00
12694;BME280;6411;58.190;12.720;2022-11-02T03:57:46;100049.22;;;16.08;100.00
12694;BME280;6411;58.190;12.720;2022-11-02T04:00:32;100049.19;;;16.26;100.00
12694;BME280;6411;58.190;12.720;2022-11-02T04:03:00;100053.81;;;16.24;100.00
12694;BME280;6411;58.190;12.720;2022-11-02T04:05:34;100056.66;;;15.87;100.00
12694;BME280;6411;58.190;12.720;2022-11-02T04:08:01;100054.91;;;16.13;100.00
12694;BME280;6411;58.190;12.720;2022-11-02T04:10:46;100060.00;;;15.72;100.00
12694;BME280;6411;58.190;12.720;2022-11-02T04:13:31;100055.44;;;15.82;100.00
12694;BME280;6411;58.190;12.720;2022-11-02T04:16:15;100061.38;;;15.93;100.00
12694;BME280;6411;58.190;12.720;2022-11-02T04:18:41;100046.56;;;16.08;100.00
12694;BME280;6411;58.190;12.720;2022-11-02T04:21:25;100040.75;;;15.87;100.00
12694;BME280;6411;58.190;12.720;2022-11-02T04:23:51;100043.19;;;15.98;100.00
12694;BME280;6411;58.190;12.720;2022-11-02T04:26:36;100041.22;;;15.83;100.00
12694;BME280;6411;58.190;12.720;2022-11-02T04:29:02;100038.03;;;15.97;100.00
12694;BME280;6411;58.190;12.720;2022-11-02T04:31:27;100017.84;;;15.51;100.00
12694;BME280;6411;58.190;12.720;2022-11-02T04:33:53;100046.91;;;15.88;100.00
12694;BME280;6411;58.190;12.720;2022-11-02T04:36:18;100033.66;;;16.13;100.00
12694;BME280;6411;58.190;12.720;2022-11-02T04:38:44;100031.41;;;16.01;100.00
12694;BME280;6411;58.190;12.720;2022-11-02T04:41:14;100036.44;;;15.86;100.00
12694;BME280;6411;58.190;12.720;2022-11-02T04:43:59;100026.72;;;15.95;100.00
12694;BME280;6411;58.190;12.720;2022-11-02T04:46:27;100013.03;;;16.07;100.00
12694;BME280;6411;58.190;12.720;2022-11-02T04:48:53;100017.31;;;15.83;100.00
12694;BME280;6411;58.190;12.720;2022-11-02T04:51:19;100010.38;;;16.07;100.00
12694;BME280;6411;58.190;12.720;2022-11-02T04:53:45;100013.97;;;15.98;100.00
12694;BME280;6411;58.190;12.720;2022-11-02T04:56:11;100011.00;;;16.01;100.00
12694;BME280;6411;58.190;12.720;2022-11-02T04:58:37;100019.22;;;15.90;100.00
12694;BME280;6411;58.190;12.720;2022-11-02T05:01:13;100025.66;;;15.70;100.00
12694;BME280;6411;58.190;12.720;2022-11-02T05:03:39;100018.00;;;16.02;100.00
12694;BME280;6411;58.190;12.720;2022-11-02T05:06:05;100000.69;;;15.98;100.00
12694;BME280;6411;58.190;12.720;2022-11-02T05:08:31;100016.56;;;15.90;100.00
12694;BME280;6411;58.190;12.720;2022-11-02T05:10:57;100022.25;;;15.60;100.00
12694;BME280;6411;58.190;12.720;2022-11-02T05:13:24;100014.16;;;16.22;100.00
12694;BME280;6411;58.190;12.720;2022-11-02T05:15:49;100012.97;;;15.82;100.00
12694;BME280;6411;58.190;12.720;2022-11-02T05:18:15;100020.00;;;16.08;100.00
12694;BME280;6411;58.190;12.720;2022-11-02T05:20:41;100011.81;;;16.19;100.00
12694;BME280;6411;58.190;12.720;2022-11-02T05:23:07;100009.22;;;16.10;100.00
12694;BME280;6411;58.190;12.720;2022-11-02T05:25:32;100016.78;;;15.79;100.00
12694;BME280;6411;58.190;12.720;2022-11-02T05:27:58;100021.31;;;16.04;100.00
12694;BME280;6411;58.190;12.720;2022-11-02T05:30:24;100013.78;;;16.17;100.00
12694;BME280;6411;58.190;12.720;2022-11-02T05:32:49;100029.13;;;16.06;100.00
12694;BME280;6411;58.190;12.720;2022-11-02T05:35:15;100027.31;;;15.89;100.00
12694;BME280;6411;58.190;12.720;2022-11-02T05:37:40;100028.91;;;15.99;100.00
12694;BME280;6411;58.190;12.720;2022-11-02T05:40:06;100025.28;;;15.83;100.00
12694;BME280;6411;58.190;12.720;2022-11-02T05:42:33;100028.38;;;15.78;100.00
12694;BME280;6411;58.190;12.720;2022-11-02T05:44:58;100012.41;;;16.13;100.00
12694;BME280;6411;58.190;12.720;2022-11-02T05:47:24;100012.94;;;16.17;100.00
12694;BME280;6411;58.190;12.720;2022-11-02T05:49:49;100010.50;;;16.23;100.00
12694;BME280;6411;58.190;12.720;2022-11-02T05:52:15;100018.53;;;16.31;100.00
12694;BME280;6411;58.190;12.720;2022-11-02T05:54:41;100024.97;;;16.03;100.00
12694;BME280;6411;58.190;12.720;2022-11-02T05:57:06;99999.53;;;16.01;100.00
12694;BME280;6411;58.190;12.720;2022-11-02T05:59:32;100018.41;;;16.15;100.00
12694;BME280;6411;58.190;12.720;2022-11-02T06:01:57;100018.16;;;16.26;100.00
12694;BME280;6411;58.190;12.720;2022-11-02T06:04:23;100019.47;;;16.05;100.00
12694;BME280;6411;58.190;12.720;2022-11-02T06:06:48;100014.84;;;16.07;100.00
12694;BME280;6411;58.190;12.720;2022-11-02T06:09:14;100007.78;;;16.15;100.00
12694;BME280;6411;58.190;12.720;2022-11-02T06:11:39;100005.66;;;16.19;100.00
12694;BME280;6411;58.190;12.720;2022-11-02T06:14:05;100016.94;;;15.95;100.00
12694;BME280;6411;58.190;12.720;2022-11-02T06:16:30;100015.34;;;15.85;100.00
12694;BME280;6411;58.190;12.720;2022-11-02T06:18:56;100017.91;;;15.77;100.00
12694;BME280;6411;58.190;12.720;2022-11-02T06:21:21;100013.38;;;15.51;100.00
12694;BME280;6411;58.190;12.720;2022-11-02T06:23:47;100006.84;;;15.99;100.00
12694;BME280;6411;58.190;12.720;2022-11-02T06:26:13;100000.66;;;16.16;100.00
12694;BME280;6411;58.190;12.720;2022-11-02T06:28:39;100013.25;;;16.14;100.00
12694;BME280;6411;58.190;12.720;2022-11-02T06:31:04;100017.91;;;16.37;100.00
12694;BME280;6411;58.190;12.720;2022-11-02T06:33:30;99997.84;;;16.17;100.00
12694;BME280;6411;58.190;12.720;2022-11-02T06:35:55;100007.09;;;16.13;100.00
12694;BME280;6411;58.190;12.720;2022-11-02T06:38:22;99976.75;;;15.90;100.00
12694;BME280;6411;58.190;12.720;2022-11-02T06:40:59;99986.03;;;16.37;100.00
12694;BME280;6411;58.190;12.720;2022-11-02T06:43:26;99982.94;;;16.24;100.00
12694;BME280;6411;58.190;12.720;2022-11-02T06:45:56;99977.94;;;15.78;100.00
12694;BME280;6411;58.190;12.720;2022-11-02T06:48:23;99994.63;;;15.88;100.00
12694;BME280;6411;58.190;12.720;2022-11-02T06:50:49;99986.56;;;15.98;100.00
12694;BME280;6411;58.190;12.720;2022-11-02T06:53:14;99993.50;;;15.73;100.00
12694;BME280;6411;58.190;12.720;2022-11-02T06:55:40;99986.00;;;16.12;100.00
12694;BME280;6411;58.190;12.720;2022-11-02T06:58:05;99993.50;;;15.73;100.00
12694;BME280;6411;58.190;12.720;2022-11-02T07:00:31;100001.34;;;16.18;100.00
12694;BME280;6411;58.190;12.720;2022-11-02T07:03:00;99987.47;;;16.06;100.00
12694;BME280;6411;58.190;12.720;2022-11-02T07:05:27;100002.91;;;16.28;100.00
12694;BME280;6411;58.190;12.720;2022-11-02T07:07:53;100008.41;;;16.09;100.00
12694;BME280;6411;58.190;12.720;2022-11-02T07:10:18;100000.50;;;15.74;100.00
12694;BME280;6411;58.190;12.720;2022-11-02T07:12:44;100008.59;;;15.90;100.00
12694;BME280;6411;58.190;12.720;2022-11-02T07:15:09;100003.19;;;16.25;100.00
12694;BME280;6411;58.190;12.720;2022-11-02T07:17:38;99980.13;;;16.00;100.00
12694;BME280;6411;58.190;12.720;2022-11-02T07:20:04;99998.56;;;15.84;100.00
12694;BME280;6411;58.190;12.720;2022-11-02T07:22:29;99987.06;;;16.19;100.00
12694;BME280;6411;58.190;12.720;2022-11-02T07:24:55;99981.94;;;16.00;100.00
12694;BME280;6411;58.190;12.720;2022-11-02T07:27:21;99977.16;;;16.03;100.00
12694;BME280;6411;58.190;12.720;2022-11-02T07:29:46;99973.72;;;16.11;100.00
12694;BME280;6411;58.190;12.720;2022-11-02T07:32:12;99971.34;;;15.82;100.00
12694;BME280;6411;58.190;12.720;2022-11-02T07:34:37;99970.22;;;15.67;100.00
12694;BME280;6411;58.190;12.720;2022-11-02T07:37:03;99968.50;;;16.01;100.00
12694;BME280;6411;58.190;12.720;2022-11-02T07:39:28;99981.09;;;15.99;100.00
12694;BME280;6411;58.190;12.720;2022-11-02T07:41:54;99971.69;;;16.05;100.00
12694;BME280;6411;58.190;12.720;2022-11-02T07:44:19;99962.72;;;16.49;100.00
12694;BME280;6411;58.190;12.720;2022-11-02T07:46:45;99943.00;;;16.59;100.00
12694;BME280;6411;58.190;12.720;2022-11-02T07:49:10;99969.44;;;16.69;100.00
12694;BME280;6411;58.190;12.720;2022-11-02T07:51:36;99969.22;;;16.11;100.00
12694;BME280;6411;58.190;12.720;2022-11-02T07:54:01;99960.97;;;15.53;100.00
12694;BME280;6411;58.190;12.720;2022-11-02T07:56:27;99961.00;;;16.22;100.00
12694;BME280;6411;58.190;12.720;2022-11-02T07:58:52;99962.22;;;16.53;100.00
12694;BME280;6411;58.190;12.720;2022-11-02T08:01:18;99949.91;;;16.01;100.00
12694;BME280;6411;58.190;12.720;2022-11-02T08:03:43;99946.09;;;15.78;100.00
12694;BME280;6411;58.190;12.720;2022-11-02T08:06:09;99968.00;;;16.23;100.00
12694;BME280;6411;58.190;12.720;2022-11-02T08:08:35;99972.44;;;15.97;100.00
12694;BME280;6411;58.190;12.720;2022-11-02T08:11:05;99967.34;;;15.60;100.00
12694;BME280;6411;58.190;12.720;2022-11-02T08:13:32;99975.25;;;15.96;100.00
12694;BME280;6411;58.190;12.720;2022-11-02T08:15:58;99970.78;;;15.96;100.00
12694;BME280;6411;58.190;12.720;2022-11-02T08:18:25;99969.91;;;16.56;100.00
12694;BME280;6411;58.190;12.720;2022-11-02T08:20:53;99955.41;;;15.82;100.00
12694;BME280;6411;58.190;12.720;2022-11-02T08:23:19;99957.31;;;16.15;100.00
12694;BME280;6411;58.190;12.720;2022-11-02T08:25:46;99955.38;;;16.25;100.00
12694;BME280;6411;58.190;12.720;2022-11-02T08:28:17;99945.66;;;16.34;100.00
12694;BME280;6411;58.190;12.720;2022-11-02T08:30:43;99950.97;;;16.08;100.00
12694;BME280;6411;58.190;12.720;2022-11-02T08:33:11;99951.44;;;16.29;100.00
12694;BME280;6411;58.190;12.720;2022-11-02T08:35:38;99938.78;;;16.23;100.00
12694;BME280;6411;58.190;12.720;2022-11-02T08:38:04;99940.47;;;16.32;100.00
12694;BME280;6411;58.190;12.720;2022-11-02T08:40:30;99910.44;;;16.06;100.00
12694;BME280;6411;58.190;12.720;2022-11-02T08:43:15;99913.91;;;16.32;100.00
12694;BME280;6411;58.190;12.720;2022-11-02T08:45:42;99936.72;;;16.43;100.00
12694;BME280;6411;58.190;12.720;2022-11-02T08:48:09;99927.66;;;16.53;100.00
12694;BME280;6411;58.190;12.720;2022-11-02T08:50:34;99926.56;;;16.38;100.00
12694;BME280;6411;58.190;12.720;2022-11-02T08:53:00;99929.09;;;16.14;100.00
12694;BME280;6411;58.190;12.720;2022-11-02T08:55:26;99944.34;;;16.12;100.00
12694;BME280;6411;58.190;12.720;2022-11-02T08:57:56;99933.63;;;15.96;100.00
12694;BME280;6411;58.190;12.720;2022-11-02T09:00:33;99954.47;;;15.48;100.00
12694;BME280;6411;58.190;12.720;2022-11-02T09:03:07;99934.50;;;16.05;100.00
12694;BME280;6411;58.190;12.720;2022-11-02T09:05:38;99937.16;;;15.79;100.00
12694;BME280;6411;58.190;12.720;2022-11-02T09:08:06;99938.56;;;15.91;100.00
12694;BME280;6411;58.190;12.720;2022-11-02T09:10:34;99934.91;;;15.92;100.00
12694;BME280;6411;58.190;12.720;2022-11-02T09:13:01;99933.94;;;16.19;100.00
12694;BME280;6411;58.190;12.720;2022-11-02T09:15:28;99944.81;;;15.82;100.00
12694;BME280;6411;58.190;12.720;2022-11-02T09:17:53;99935.63;;;16.20;100.00
12694;BME280;6411;58.190;12.720;2022-11-02T09:20:20;99937.47;;;16.02;100.00
12694;BME280;6411;58.190;12.720;2022-11-02T09:22:45;99934.75;;;16.79;100.00
12694;BME280;6411;58.190;12.720;2022-11-02T09:25:12;99935.16;;;17.00;100.00
12694;BME280;6411;58.190;12.720;2022-11-02T09:27:38;99927.81;;;16.94;100.00
12694;BME280;6411;58.190;12.720;2022-11-02T09:30:04;99933.50;;;16.57;100.00
12694;BME280;6411;58.190;12.720;2022-11-02T09:32:30;99933.38;;;16.66;100.00
12694;BME280;6411;58.190;12.720;2022-11-02T09:35:02;99927.25;;;16.40;100.00
12694;BME280;6411;58.190;12.720;2022-11-02T09:37:28;99929.22;;;16.38;100.00
12694;BME280;6411;58.190;12.720;2022-11-02T09:39:54;99932.81;;;16.21;100.00
12694;BME280;6411;58.190;12.720;2022-11-02T09:45:19;99920.78;;;16.68;100.00
12694;BME280;6411;58.190;12.720;2022-11-02T09:47:49;99919.19;;;16.24;100.00
12694;BME280;6411;58.190;12.720;2022-11-02T09:50:23;99918.06;;;16.60;100.00
12694;BME280;6411;58.190;12.720;2022-11-02T09:52:56;99920.06;;;17.00;100.00
12694;BME280;6411;58.190;12.720;2022-11-02T09:55:30;99915.22;;;16.54;100.00
12694;BME280;6411;58.190;12.720;2022-11-02T09:58:06;99922.38;;;17.03;100.00
12694;BME280;6411;58.190;12.720;2022-11-02T10:00:39;99916.13;;;16.70;100.00
12694;BME280;6411;58.190;12.720;2022-11-02T10:05:39;99920.72;;;16.60;100.00
12694;BME280;6411;58.190;12.720;2022-11-02T10:10:55;99913.81;;;16.76;100.00
12694;BME280;6411;58.190;12.720;2022-11-02T10:15:55;99914.94;;;16.65;100.00
12694;BME280;6411;58.190;12.720;2022-11-02T10:18:27;99900.25;;;16.95;100.00
12694;BME280;6411;58.190;12.720;2022-11-02T10:20:59;99917.81;;;16.46;100.00
12694;BME280;6411;58.190;12.720;2022-11-02T10:23:39;99923.91;;;16.64;100.00
12694;BME280;6411;58.190;12.720;2022-11-02T10:26:05;99917.97;;;16.44;100.00
12694;BME280;6411;58.190;12.720;2022-11-02T10:28:38;99912.94;;;16.33;100.00
12694;BME280;6411;58.190;12.720;2022-11-02T10:31:21;99910.94;;;18.15;100.00
12694;BME280;6411;58.190;12.720;2022-11-02T10:33:48;99919.16;;;17.73;100.00
12694;BME280;6411;58.190;12.720;2022-11-02T10:36:54;99917.56;;;17.15;100.00
12694;BME280;6411;58.190;12.720;2022-11-02T10:47:26;99909.59;;;17.07;100.00
12694;BME280;6411;58.190;12.720;2022-11-02T10:50:14;99910.22;;;17.01;100.00
12694;BME280;6411;58.190;12.720;2022-11-02T10:52:44;99902.25;;;17.01;100.00
12694;BME280;6411;58.190;12.720;2022-11-02T10:58:20;99878.22;;;20.41;100.00
12694;BME280;6411;58.190;12.720;2022-11-02T11:00:46;99889.13;;;19.87;100.00
12694;BME280;6411;58.190;12.720;2022-11-02T11:03:16;99903.88;;;18.38;100.00
12694;BME280;6411;58.190;12.720;2022-11-02T11:05:51;99894.56;;;18.81;100.00
12694;BME280;6411;58.190;12.720;2022-11-02T11:08:59;99884.28;;;19.68;100.00
12694;BME280;6411;58.190;12.720;2022-11-02T11:11:37;99895.59;;;19.03;100.00
12694;BME280;6411;58.190;12.720;2022-11-02T11:14:06;99846.75;;;17.62;100.00
12694;BME280;6411;58.190;12.720;2022-11-02T11:16:49;99890.50;;;18.54;100.00
12694;BME280;6411;58.190;12.720;2022-11-02T11:19:22;99902.72;;;18.33;100.00
12694;BME280;6411;58.190;12.720;2022-11-02T11:21:48;99894.53;;;17.55;100.00
12694;BME280;6411;58.190;12.720;2022-11-02T11:24:27;99902.53;;;17.47;100.00
12694;BME280;6411;58.190;12.720;2022-11-02T11:29:39;99890.34;;;17.37;100.00
12694;BME280;6411;58.190;12.720;2022-11-02T11:32:14;99893.91;;;16.88;100.00
12694;BME280;6411;58.190;12.720;2022-11-02T11:34:42;99896.31;;;17.23;100.00
12694;BME280;6411;58.190;12.720;2022-11-02T11:37:14;99890.66;;;17.18;100.00
12694;BME280;6411;58.190;12.720;2022-11-02T11:39:43;99885.69;;;18.50;100.00
12694;BME280;6411;58.190;12.720;2022-11-02T11:42:18;99886.22;;;18.84;100.00
12694;BME280;6411;58.190;12.720;2022-11-02T11:45:03;99885.72;;;17.63;100.00
12694;BME280;6411;58.190;12.720;2022-11-02T11:47:35;99874.97;;;16.83;100.00
12694;BME280;6411;58.190;12.720;2022-11-02T11:50:05;99887.97;;;17.10;100.00
12694;BME280;6411;58.190;12.720;2022-11-02T11:52:32;99883.31;;;17.12;100.00
12694;BME280;6411;58.190;12.720;2022-11-02T11:54:59;99876.03;;;17.62;100.00
12694;BME280;6411;58.190;12.720;2022-11-02T11:57:29;99879.34;;;17.24;100.00
12694;BME280;6411;58.190;12.720;2022-11-02T11:59:56;99867.84;;;17.96;100.00
12694;BME280;6411;58.190;12.720;2022-11-02T12:02:29;99874.38;;;18.40;100.00
12694;BME280;6411;58.190;12.720;2022-11-02T12:05:15;99881.25;;;22.89;100.00
12694;BME280;6411;58.190;12.720;2022-11-02T12:07:54;99873.78;;;24.10;100.00
12694;BME280;6411;58.190;12.720;2022-11-02T12:16:12;99880.34;;;26.52;100.00
12694;BME280;6411;58.190;12.720;2022-11-02T12:37:25;99851.69;;;16.85;100.00
12694;BME280;6411;58.190;12.720;2022-11-02T12:41:01;99864.19;;;17.16;100.00
12694;BME280;6411;58.190;12.720;2022-11-02T12:46:09;99856.31;;;16.74;100.00
12694;BME280;6411;58.190;12.720;2022-11-02T12:51:38;99858.22;;;17.30;100.00
12694;BME280;6411;58.190;12.720;2022-11-02T12:54:09;99865.41;;;16.56;100.00
12694;BME280;6411;58.190;12.720;2022-11-02T12:56:47;99869.84;;;17.05;100.00
12694;BME280;6411;58.190;12.720;2022-11-02T12:59:20;99869.69;;;17.15;100.00
12694;BME280;6411;58.190;12.720;2022-11-02T13:01:48;99852.84;;;16.40;100.00
12694;BME280;6411;58.190;12.720;2022-11-02T13:04:24;99870.50;;;16.99;100.00
12694;BME280;6411;58.190;12.720;2022-11-02T13:06:57;99867.78;;;16.75;100.00
12694;BME280;6411;58.190;12.720;2022-11-02T13:09:45;99876.03;;;16.56;100.00
12694;BME280;6411;58.190;12.720;2022-11-02T13:12:19;99881.50;;;16.21;100.00
12694;BME280;6411;58.190;12.720;2022-11-02T13:14:48;99880.06;;;16.34;100.00
12694;BME280;6411;58.190;12.720;2022-11-02T13:20:35;99885.84;;;16.30;100.00
12694;BME280;6411;58.190;12.720;2022-11-02T13:23:33;99890.78;;;16.50;100.00
12694;BME280;6411;58.190;12.720;2022-11-02T13:26:24;99889.25;;;16.14;100.00
12694;BME280;6411;58.190;12.720;2022-11-02T13:28:53;99888.94;;;15.66;100.00
12694;BME280;6411;58.190;12.720;2022-11-02T13:31:32;99890.31;;;16.29;100.00
12694;BME280;6411;58.190;12.720;2022-11-02T13:34:01;99885.84;;;16.30;100.00
12694;BME280;6411;58.190;12.720;2022-11-02T13:36:28;99892.09;;;16.46;100.00
12694;BME280;6411;58.190;12.720;2022-11-02T13:39:01;99879.09;;;16.43;100.00
12694;BME280;6411;58.190;12.720;2022-11-02T13:41:46;99892.22;;;16.11;100.00
12694;BME280;6411;58.190;12.720;2022-11-02T13:49:57;99895.94;;;15.32;100.00
12694;BME280;6411;58.190;12.720;2022-11-02T13:52:40;99903.00;;;15.84;100.00
12694;BME280;6411;58.190;12.720;2022-11-02T13:55:16;99892.59;;;16.16;100.00
12694;BME280;6411;58.190;12.720;2022-11-02T13:57:46;99900.16;;;15.78;100.00
12694;BME280;6411;58.190;12.720;2022-11-02T14:02:51;99891.88;;;16.73;100.00
12694;BME280;6411;58.190;12.720;2022-11-02T14:05:29;99894.97;;;16.27;100.00
12694;BME280;6411;58.190;12.720;2022-11-02T14:08:04;99900.78;;;16.56;100.00
12694;BME280;6411;58.190;12.720;2022-11-02T14:10:34;99894.13;;;18.23;100.00
12694;BME280;6411;58.190;12.720;2022-11-02T14:13:01;99901.84;;;19.18;100.00
12694;BME280;6411;58.190;12.720;2022-11-02T14:20:43;99906.22;;;20.59;100.00
12694;BME280;6411;58.190;12.720;2022-11-02T14:37:03;99928.06;;;14.84;100.00
12694;BME280;6411;58.190;12.720;2022-11-02T14:47:39;99911.19;;;15.47;100.00
12694;BME280;6411;58.190;12.720;2022-11-02T14:52:39;99935.69;;;15.14;100.00
12694;BME280;6411;58.190;12.720;2022-11-02T14:57:51;99918.25;;;14.94;100.00
12694;BME280;6411;58.190;12.720;2022-11-02T15:02:46;99934.94;;;15.04;100.00
12694;BME280;6411;58.190;12.720;2022-11-02T15:05:25;99934.59;;;14.90;100.00
12694;BME280;6411;58.190;12.720;2022-11-02T15:07:55;99918.47;;;14.56;100.00